sensor_id;sensor_type;location;lat;lon;timestamp;temperature;humidity
14473;DHT22;7322;50.872;4.386;2023-04-03T00:00:33;18.50;99.90
14473;DHT22;7322;50.872;4.386;2023-04-03T00:03:07;18.40;99.90
14473;DHT22;7322;50.872;4.386;2023-04-03T00:05:38;18.40;99.90
14473;DHT22;7322;50.872;4.386;2023-04-03T00:08:08;18.40;99.90
14473;DHT22;7322;50.872;4.386;2023-04-03T00:10:36;18.40;99.90
14473;DHT22;7322;50.872;4.386;2023-04-03T00:13:07;18.40;99.90
14473;DHT22;7322;50.872;4.386;2023-04-03T00:19:01;18.40;99.90
14473;DHT22;7322;50.872;4.386;2023-04-03T00:21:39;18.40;99.90
14473;DHT22;7322;50.872;4.386;2023-04-03T00:24:07;18.40;99.90
14473;DHT22;7322;50.872;4.386;2023-04-03T00:26:41;18.40;99.90
14473;DHT22;7322;50.872;4.386;2023-04-03T00:29:11;18.40;99.90
14473;DHT22;7322;50.872;4.386;2023-04-03T00:34:54;18.40;99.90
14473;DHT22;7322;50.872;4.386;2023-04-03T00:37:24;18.40;99.90
14473;DHT22;7322;50.872;4.386;2023-04-03T00:39:52;18.30;99.90
14473;DHT22;7322;50.872;4.386;2023-04-03T00:42:36;18.30;99.90
14473;DHT22;7322;50.872;4.386;2023-04-03T00:45:30;18.40;99.90
14473;DHT22;7322;50.872;4.386;2023-04-03T00:48:02;18.40;99.90
14473;DHT22;7322;50.872;4.386;2023-04-03T00:50:48;18.40;99.90
14473;DHT22;7322;50.872;4.386;2023-04-03T00:53:31;18.40;99.90
14473;DHT22;7322;50.872;4.386;2023-04-03T00:56:16;18.40;99.90
14473;DHT22;7322;50.872;4.386;2023-04-03T00:58:49;18.40;99.90
14473;DHT22;7322;50.872;4.386;2023-04-03T01:01:28;18.40;99.90
14473;DHT22;7322;50.872;4.386;2023-04-03T01:03:57;18.40;99.90
14473;DHT22;7322;50.872;4.386;2023-04-03T01:06:48;18.40;99.90
14473;DHT22;7322;50.872;4.386;2023-04-03T01:09:33;18.40;99.90
14473;DHT22;7322;50.872;4.386;2023-04-03T01:12:33;18.40;99.90
14473;DHT22;7322;50.872;4.386;2023-04-03T01:15:10;18.40;99.90
14473;DHT22;7322;50.872;4.386;2023-04-03T01:17:57;18.40;99.90
14473;DHT22;7322;50.872;4.386;2023-04-03T01:27:07;18.40;99.90
14473;DHT22;7322;50.872;4.386;2023-04-03T01:29:40;18.40;99.90
14473;DHT22;7322;50.872;4.386;2023-04-03T01:32:16;18.40;99.90
14473;DHT22;7322;50.872;4.386;2023-04-03T01:34:45;18.40;99.90
14473;DHT22;7322;50.872;4.386;2023-04-03T01:37:14;18.40;99.90
14473;DHT22;7322;50.872;4.386;2023-04-03T01:39:44;18.40;99.90
14473;DHT22;7322;50.872;4.386;2023-04-03T01:42:12;18.40;99.90
14473;DHT22;7322;50.872;4.386;2023-04-03T01:44:39;18.40;99.90
14473;DHT22;7322;50.872;4.386;2023-04-03T01:47:18;18.40;99.90
14473;DHT22;7322;50.872;4.386;2023-04-03T01:50:00;18.40;99.90
14473;DHT22;7322;50.872;4.386;2023-04-03T01:52:45;18.40;99.90
14473;DHT22;7322;50.872;4.386;2023-04-03T01:55:43;18.40;99.90
14473;DHT22;7322;50.872;4.386;2023-04-03T01:58:22;18.40;99.90
14473;DHT22;7322;50.872;4.386;2023-04-03T02:00:49;18.40;99.90
14473;DHT22;7322;50.872;4.386;2023-04-03T02:03:33;18.40;99.90
14473;DHT22;7322;50.872;4.386;2023-04-03T02:06:21;18.40;99.90
14473;DHT22;7322;50.872;4.386;2023-04-03T02:12:07;18.40;99.90
14473;DHT22;7322;50.872;4.386;2023-04-03T02:14:41;18.40;99.90
14473;DHT22;7322;50.872;4.386;2023-04-03T02:17:18;18.30;99.90
14473;DHT22;7322;50.872;4.386;2023-04-03T02:23:11;18.40;99.90
14473;DHT22;7322;50.872;4.386;2023-04-03T02:26:04;18.40;99.90
14473;DHT22;7322;50.872;4.386;2023-04-03T02:28:44;18.40;99.90
14473;DHT22;7322;50.872;4.386;2023-04-03T02:31:15;18.40;99.90
14473;DHT22;7322;50.872;4.386;2023-04-03T02:33:44;18.40;99.90
14473;DHT22;7322;50.872;4.386;2023-04-03T02:36:28;18.40;99.90
14473;DHT22;7322;50.872;4.386;2023-04-03T02:39:05;18.40;99.90
14473;DHT22;7322;50.872;4.386;2023-04-03T02:41:33;18.40;99.90
14473;DHT22;7322;50.872;4.386;2023-04-03T02:44:03;18.30;99.90
14473;DHT22;7322;50.872;4.386;2023-04-03T02:46:32;18.40;99.90
14473;DHT22;7322;50.872;4.386;2023-04-03T02:49:02;18.40;99.90
14473;DHT22;7322;50.872;4.386;2023-04-03T02:51:49;18.30;99.90
14473;DHT22;7322;50.872;4.386;2023-04-03T02:54:33;18.40;99.90
14473;DHT22;7322;50.872;4.386;2023-04-03T02:57:22;18.40;99.90
14473;DHT22;7322;50.872;4.386;2023-04-03T03:00:00;18.40;99.90
14473;DHT22;7322;50.872;4.386;2023-04-03T03:02:51;18.40;99.90
14473;DHT22;7322;50.872;4.386;2023-04-03T03:05:25;18.40;99.90
14473;DHT22;7322;50.872;4.386;2023-04-03T03:07:53;18.30;99.90
14473;DHT22;7322;50.872;4.386;2023-04-03T03:10:23;18.30;99.90
14473;DHT22;7322;50.872;4.386;2023-04-03T03:12:52;18.30;99.90
14473;DHT22;7322;50.872;4.386;2023-04-03T03:15:22;18.30;99.90
14473;DHT22;7322;50.872;4.386;2023-04-03T03:17:51;18.30;99.90
14473;DHT22;7322;50.872;4.386;2023-04-03T03:20:22;18.30;99.90
14473;DHT22;7322;50.872;4.386;2023-04-03T03:23:13;18.40;99.90
14473;DHT22;7322;50.872;4.386;2023-04-03T03:26:04;18.40;99.90
14473;DHT22;7322;50.872;4.386;2023-04-03T03:28:48;18.40;99.90
14473;DHT22;7322;50.872;4.386;2023-04-03T03:31:27;18.30;99.90
14473;DHT22;7322;50.872;4.386;2023-04-03T03:33:57;18.30;99.90
14473;DHT22;7322;50.872;4.386;2023-04-03T03:36:29;18.30;99.90
14473;DHT22;7322;50.872;4.386;2023-04-03T03:38:57;18.30;99.90
14473;DHT22;7322;50.872;4.386;2023-04-03T03:41:32;18.30;99.90
14473;DHT22;7322;50.872;4.386;2023-04-03T03:44:00;18.30;99.90
14473;DHT22;7322;50.872;4.386;2023-04-03T03:46:38;18.30;99.90
14473;DHT22;7322;50.872;4.386;2023-04-03T03:49:20;18.30;99.90
14473;DHT22;7322;50.872;4.386;2023-04-03T03:51:48;18.30;99.90
14473;DHT22;7322;50.872;4.386;2023-04-03T03:57:54;18.30;99.90
14473;DHT22;7322;50.872;4.386;2023-04-03T04:00:47;18.30;99.90
14473;DHT22;7322;50.872;4.386;2023-04-03T04:03:22;18.30;99.90
14473;DHT22;7322;50.872;4.386;2023-04-03T04:05:56;18.30;99.90
14473;DHT22;7322;50.872;4.386;2023-04-03T04:08:24;18.30;99.90
14473;DHT22;7322;50.872;4.386;2023-04-03T04:10:53;18.30;99.90
14473;DHT22;7322;50.872;4.386;2023-04-03T04:13:25;18.30;99.90
14473;DHT22;7322;50.872;4.386;2023-04-03T04:15:59;18.30;99.90
14473;DHT22;7322;50.872;4.386;2023-04-03T04:18:43;18.30;99.90
14473;DHT22;7322;50.872;4.386;2023-04-03T04:21:22;18.30;99.90
14473;DHT22;7322;50.872;4.386;2023-04-03T04:27:08;18.30;99.90
14473;DHT22;7322;50.872;4.386;2023-04-03T04:29:41;18.30;99.90
14473;DHT22;7322;50.872;4.386;2023-04-03T04:32:37;18.30;99.90
14473;DHT22;7322;50.872;4.386;2023-04-03T04:35:15;18.30;99.90
14473;DHT22;7322;50.872;4.386;2023-04-03T04:37:43;18.20;99.90
14473;DHT22;7322;50.872;4.386;2023-04-03T04:43:20;18.20;99.90
14473;DHT22;7322;50.872;4.386;2023-04-03T04:45:48;18.20;99.90
14473;DHT22;7322;50.872;4.386;2023-04-03T04:48:22;18.30;99.90
14473;DHT22;7322;50.872;4.386;2023-04-03T04:51:05;18.30;99.90
14473;DHT22;7322;50.872;4.386;2023-04-03T04:53:38;18.30;99.90
14473;DHT22;7322;50.872;4.386;2023-04-03T04:56:15;18.20;99.90
14473;DHT22;7322;50.872;4.386;2023-04-03T04:58:53;18.30;99.90
14473;DHT22;7322;50.872;4.386;2023-04-03T05:01:23;18.20;99.90
14473;DHT22;7322;50.872;4.386;2023-04-03T05:03:50;18.20;99.90
14473;DHT22;7322;50.872;4.386;2023-04-03T05:09:44;18.40;99.90
14473;DHT22;7322;50.872;4.386;2023-04-03T05:12:20;18.40;99.90
14473;DHT22;7322;50.872;4.386;2023-04-03T05:15:17;18.60;99.90
14473;DHT22;7322;50.872;4.386;2023-04-03T05:17:46;18.70;99.90
14473;DHT22;7322;50.872;4.386;2023-04-03T05:20:14;18.90;99.90
14473;DHT22;7322;50.872;4.386;2023-04-03T05:25:57;19.30;99.90
14473;DHT22;7322;50.872;4.386;2023-04-03T05:28:26;19.50;99.90
14473;DHT22;7322;50.872;4.386;2023-04-03T05:30:56;19.60;99.90
14473;DHT22;7322;50.872;4.386;2023-04-03T05:33:35;19.90;99.90
14473;DHT22;7322;50.872;4.386;2023-04-03T05:39:10;20.30;99.90
14473;DHT22;7322;50.872;4.386;2023-04-03T05:41:43;20.40;99.90
14473;DHT22;7322;50.872;4.386;2023-04-03T05:44:29;20.60;99.90
14473;DHT22;7322;50.872;4.386;2023-04-03T05:47:18;20.70;99.90
14473;DHT22;7322;50.872;4.386;2023-04-03T05:49:48;20.80;99.90
14473;DHT22;7322;50.872;4.386;2023-04-03T05:52:35;20.90;99.90
14473;DHT22;7322;50.872;4.386;2023-04-03T05:55:08;21.00;99.90
14473;DHT22;7322;50.872;4.386;2023-04-03T05:57:43;20.90;99.90
14473;DHT22;7322;50.872;4.386;2023-04-03T06:00:13;21.00;99.90
14473;DHT22;7322;50.872;4.386;2023-04-03T06:02:47;21.00;99.90
14473;DHT22;7322;50.872;4.386;2023-04-03T06:05:36;21.00;99.90
14473;DHT22;7322;50.872;4.386;2023-04-03T06:08:10;21.00;99.90
14473;DHT22;7322;50.872;4.386;2023-04-03T06:10:44;21.00;99.90
14473;DHT22;7322;50.872;4.386;2023-04-03T06:13:22;20.90;99.90
14473;DHT22;7322;50.872;4.386;2023-04-03T06:19:09;20.90;99.90
14473;DHT22;7322;50.872;4.386;2023-04-03T06:21:57;20.80;99.90
14473;DHT22;7322;50.872;4.386;2023-04-03T06:24:24;20.80;99.90
14473;DHT22;7322;50.872;4.386;2023-04-03T06:27:11;20.70;99.90
14473;DHT22;7322;50.872;4.386;2023-04-03T06:33:00;20.70;99.90
14473;DHT22;7322;50.872;4.386;2023-04-03T06:35:27;20.60;99.90
14473;DHT22;7322;50.872;4.386;2023-04-03T06:37:58;20.60;99.90
14473;DHT22;7322;50.872;4.386;2023-04-03T06:40:32;20.60;99.90
14473;DHT22;7322;50.872;4.386;2023-04-03T06:43:00;20.60;99.90
14473;DHT22;7322;50.872;4.386;2023-04-03T06:45:38;20.50;99.90
14473;DHT22;7322;50.872;4.386;2023-04-03T06:48:11;20.50;99.90
14473;DHT22;7322;50.872;4.386;2023-04-03T06:50:42;20.50;99.90
14473;DHT22;7322;50.872;4.386;2023-04-03T06:53:11;20.40;99.90
14473;DHT22;7322;50.872;4.386;2023-04-03T06:55:40;20.40;99.90
14473;DHT22;7322;50.872;4.386;2023-04-03T06:58:19;20.30;99.90
14473;DHT22;7322;50.872;4.386;2023-04-03T07:00:48;20.30;99.90
14473;DHT22;7322;50.872;4.386;2023-04-03T07:03:16;20.20;99.90
14473;DHT22;7322;50.872;4.386;2023-04-03T07:05:43;20.10;99.90
14473;DHT22;7322;50.872;4.386;2023-04-03T07:08:15;19.80;99.90
14473;DHT22;7322;50.872;4.386;2023-04-03T07:10:42;19.30;99.90
14473;DHT22;7322;50.872;4.386;2023-04-03T07:13:09;19.20;99.90
14473;DHT22;7322;50.872;4.386;2023-04-03T07:15:37;19.20;99.90
14473;DHT22;7322;50.872;4.386;2023-04-03T07:18:12;19.30;99.90
14473;DHT22;7322;50.872;4.386;2023-04-03T07:27:25;19.50;99.90
14473;DHT22;7322;50.872;4.386;2023-04-03T07:36:34;19.50;99.90
14473;DHT22;7322;50.872;4.386;2023-04-03T07:39:02;19.50;99.90
14473;DHT22;7322;50.872;4.386;2023-04-03T07:41:49;19.50;99.90
14473;DHT22;7322;50.872;4.386;2023-04-03T07:44:24;19.50;99.90
14473;DHT22;7322;50.872;4.386;2023-04-03T07:47:10;19.50;99.90
14473;DHT22;7322;50.872;4.386;2023-04-03T07:49:38;19.50;99.90
14473;DHT22;7322;50.872;4.386;2023-04-03T07:52:06;19.50;99.90
14473;DHT22;7322;50.872;4.386;2023-04-03T07:54:34;19.60;99.90
14473;DHT22;7322;50.872;4.386;2023-04-03T07:57:08;19.60;99.90
14473;DHT22;7322;50.872;4.386;2023-04-03T07:59:39;19.60;99.90
14473;DHT22;7322;50.872;4.386;2023-04-03T08:02:15;19.60;99.90
14473;DHT22;7322;50.872;4.386;2023-04-03T08:04:42;19.60;99.90
14473;DHT22;7322;50.872;4.386;2023-04-03T08:07:15;19.60;99.90
14473;DHT22;7322;50.872;4.386;2023-04-03T08:09:43;19.60;99.90
14473;DHT22;7322;50.872;4.386;2023-04-03T08:12:21;19.60;99.90
14473;DHT22;7322;50.872;4.386;2023-04-03T08:15:12;19.60;99.90
14473;DHT22;7322;50.872;4.386;2023-04-03T08:17:50;19.60;99.90
14473;DHT22;7322;50.872;4.386;2023-04-03T08:20:53;19.60;99.90
14473;DHT22;7322;50.872;4.386;2023-04-03T08:23:32;19.60;99.90
14473;DHT22;7322;50.872;4.386;2023-04-03T08:26:06;19.50;99.90
14473;DHT22;7322;50.872;4.386;2023-04-03T08:28:33;19.50;99.90
14473;DHT22;7322;50.872;4.386;2023-04-03T08:31:08;19.50;99.90
14473;DHT22;7322;50.872;4.386;2023-04-03T08:33:41;19.50;99.90
14473;DHT22;7322;50.872;4.386;2023-04-03T08:36:18;19.50;99.90
14473;DHT22;7322;50.872;4.386;2023-04-03T08:38:46;19.40;99.90
14473;DHT22;7322;50.872;4.386;2023-04-03T08:41:16;19.40;99.90
14473;DHT22;7322;50.872;4.386;2023-04-03T08:43:58;19.40;99.90
14473;DHT22;7322;50.872;4.386;2023-04-03T08:49:48;19.40;99.90
14473;DHT22;7322;50.872;4.386;2023-04-03T08:52:31;19.30;99.90
14473;DHT22;7322;50.872;4.386;2023-04-03T08:55:04;19.30;99.90
14473;DHT22;7322;50.872;4.386;2023-04-03T08:57:35;19.30;99.90
14473;DHT22;7322;50.872;4.386;2023-04-03T09:00:10;19.30;99.90
14473;DHT22;7322;50.872;4.386;2023-04-03T09:02:45;19.30;99.90
14473;DHT22;7322;50.872;4.386;2023-04-03T09:05:14;19.30;99.90
14473;DHT22;7322;50.872;4.386;2023-04-03T09:07:44;19.20;99.90
14473;DHT22;7322;50.872;4.386;2023-04-03T09:10:14;19.20;99.90
14473;DHT22;7322;50.872;4.386;2023-04-03T09:12:43;19.20;99.90
14473;DHT22;7322;50.872;4.386;2023-04-03T09:15:18;19.20;99.90
14473;DHT22;7322;50.872;4.386;2023-04-03T09:18:02;19.20;99.90
14473;DHT22;7322;50.872;4.386;2023-04-03T09:20:39;19.20;99.90
14473;DHT22;7322;50.872;4.386;2023-04-03T09:23:21;19.20;99.90
14473;DHT22;7322;50.872;4.386;2023-04-03T09:25:52;19.10;99.90
14473;DHT22;7322;50.872;4.386;2023-04-03T09:28:21;19.10;99.90
14473;DHT22;7322;50.872;4.386;2023-04-03T09:30:49;19.10;99.90
14473;DHT22;7322;50.872;4.386;2023-04-03T09:33:17;19.10;99.90
14473;DHT22;7322;50.872;4.386;2023-04-03T09:35:45;19.10;99.90
14473;DHT22;7322;50.872;4.386;2023-04-03T09:38:19;19.10;99.90
14473;DHT22;7322;50.872;4.386;2023-04-03T09:40:48;19.10;99.90
14473;DHT22;7322;50.872;4.386;2023-04-03T09:43:23;19.10;99.90
14473;DHT22;7322;50.872;4.386;2023-04-03T09:46:16;19.10;99.90
14473;DHT22;7322;50.872;4.386;2023-04-03T09:48:58;19.20;99.90
14473;DHT22;7322;50.872;4.386;2023-04-03T09:51:29;19.10;99.90
14473;DHT22;7322;50.872;4.386;2023-04-03T09:54:25;19.10;99.90
14473;DHT22;7322;50.872;4.386;2023-04-03T09:56:56;19.10;99.90
14473;DHT22;7322;50.872;4.386;2023-04-03T09:59:32;19.10;99.90
14473;DHT22;7322;50.872;4.386;2023-04-03T10:02:21;19.10;99.90
14473;DHT22;7322;50.872;4.386;2023-04-03T10:04:50;19.10;99.90
14473;DHT22;7322;50.872;4.386;2023-04-03T10:07:30;19.10;99.90
14473;DHT22;7322;50.872;4.386;2023-04-03T10:09:58;19.10;99.90
14473;DHT22;7322;50.872;4.386;2023-04-03T10:12:25;19.00;99.90
14473;DHT22;7322;50.872;4.386;2023-04-03T10:14:58;19.10;99.90
14473;DHT22;7322;50.872;4.386;2023-04-03T10:17:35;19.10;99.90
14473;DHT22;7322;50.872;4.386;2023-04-03T10:20:09;19.10;99.90
14473;DHT22;7322;50.872;4.386;2023-04-03T10:22:50;19.00;99.90
14473;DHT22;7322;50.872;4.386;2023-04-03T10:25:28;19.10;99.90
14473;DHT22;7322;50.872;4.386;2023-04-03T10:28:01;19.00;99.90
14473;DHT22;7322;50.872;4.386;2023-04-03T10:30:41;19.10;99.90
14473;DHT22;7322;50.872;4.386;2023-04-03T10:33:23;19.10;99.90
14473;DHT22;7322;50.872;4.386;2023-04-03T10:36:07;19.10;99.90
14473;DHT22;7322;50.872;4.386;2023-04-03T10:38:43;19.10;99.90
14473;DHT22;7322;50.872;4.386;2023-04-03T10:41:17;19.00;99.90
14473;DHT22;7322;50.872;4.386;2023-04-03T10:43:56;19.10;99.90
14473;DHT22;7322;50.872;4.386;2023-04-03T10:46:30;19.00;99.90
14473;DHT22;7322;50.872;4.386;2023-04-03T10:49:08;19.00;99.90
14473;DHT22;7322;50.872;4.386;2023-04-03T10:51:42;19.10;99.90
14473;DHT22;7322;50.872;4.386;2023-04-03T10:54:16;19.00;99.90
14473;DHT22;7322;50.872;4.386;2023-04-03T10:56:48;19.00;99.90
14473;DHT22;7322;50.872;4.386;2023-04-03T10:59:27;19.00;99.90
14473;DHT22;7322;50.872;4.386;2023-04-03T11:01:58;19.10;99.90
14473;DHT22;7322;50.872;4.386;2023-04-03T11:04:28;19.00;99.90
14473;DHT22;7322;50.872;4.386;2023-04-03T11:07:02;19.00;99.90
14473;DHT22;7322;50.872;4.386;2023-04-03T11:09:32;19.00;99.90
14473;DHT22;7322;50.872;4.386;2023-04-03T11:12:09;19.00;99.90
14473;DHT22;7322;50.872;4.386;2023-04-03T11:14:38;19.00;99.90
14473;DHT22;7322;50.872;4.386;2023-04-03T11:17:19;19.00;99.90
14473;DHT22;7322;50.872;4.386;2023-04-03T11:19:52;19.10;99.90
14473;DHT22;7322;50.872;4.386;2023-04-03T11:22:27;19.10;99.90
14473;DHT22;7322;50.872;4.386;2023-04-03T11:25:02;19.00;99.90
14473;DHT22;7322;50.872;4.386;2023-04-03T11:27:37;19.10;99.90
14473;DHT22;7322;50.872;4.386;2023-04-03T11:30:09;19.00;99.90
14473;DHT22;7322;50.872;4.386;2023-04-03T11:33:10;19.00;99.90
14473;DHT22;7322;50.872;4.386;2023-04-03T11:35:43;19.00;99.90
14473;DHT22;7322;50.872;4.386;2023-04-03T11:38:18;19.00;99.90
14473;DHT22;7322;50.872;4.386;2023-04-03T11:40:47;19.10;99.90
14473;DHT22;7322;50.872;4.386;2023-04-03T11:43:25;19.10;99.90
14473;DHT22;7322;50.872;4.386;2023-04-03T11:45:55;19.10;99.90
14473;DHT22;7322;50.872;4.386;2023-04-03T11:48:48;19.00;99.90
14473;DHT22;7322;50.872;4.386;2023-04-03T11:51:38;19.10;99.90
14473;DHT22;7322;50.872;4.386;2023-04-03T12:00:57;19.00;99.90
14473;DHT22;7322;50.872;4.386;2023-04-03T12:09:26;19.00;99.90
14473;DHT22;7322;50.872;4.386;2023-04-03T12:11:57;19.00;99.90
14473;DHT22;7322;50.872;4.386;2023-04-03T12:14:27;19.00;99.90
14473;DHT22;7322;50.872;4.386;2023-04-03T12:16:57;19.00;99.90
14473;DHT22;7322;50.872;4.386;2023-04-03T12:19:33;19.00;99.90
14473;DHT22;7322;50.872;4.386;2023-04-03T12:22:09;19.00;99.90
14473;DHT22;7322;50.872;4.386;2023-04-03T12:24:40;19.00;99.90
14473;DHT22;7322;50.872;4.386;2023-04-03T12:27:21;19.00;99.90
14473;DHT22;7322;50.872;4.386;2023-04-03T12:29:55;19.00;99.90
14473;DHT22;7322;50.872;4.386;2023-04-03T12:35:26;19.00;99.90
14473;DHT22;7322;50.872;4.386;2023-04-03T12:38:39;19.00;99.90
14473;DHT22;7322;50.872;4.386;2023-04-03T12:41:19;19.00;99.90
14473;DHT22;7322;50.872;4.386;2023-04-03T12:44:00;19.00;99.90
14473;DHT22;7322;50.872;4.386;2023-04-03T12:46:36;19.00;99.90
14473;DHT22;7322;50.872;4.386;2023-04-03T12:49:22;19.00;99.90
14473;DHT22;7322;50.872;4.386;2023-04-03T12:51:52;19.00;99.90
14473;DHT22;7322;50.872;4.386;2023-04-03T12:54:26;19.00;99.90
14473;DHT22;7322;50.872;4.386;2023-04-03T12:57:09;19.00;99.90
14473;DHT22;7322;50.872;4.386;2023-04-03T12:59:36;18.90;99.90
14473;DHT22;7322;50.872;4.386;2023-04-03T13:02:22;18.90;99.90
14473;DHT22;7322;50.872;4.386;2023-04-03T13:04:58;19.00;99.90
14473;DHT22;7322;50.872;4.386;2023-04-03T13:07:30;18.90;99.90
14473;DHT22;7322;50.872;4.386;2023-04-03T13:10:02;18.90;99.90
14473;DHT22;7322;50.872;4.386;2023-04-03T13:12:30;18.90;99.90
14473;DHT22;7322;50.872;4.386;2023-04-03T13:15:00;18.90;99.90
14473;DHT22;7322;50.872;4.386;2023-04-03T13:17:30;18.90;99.90
14473;DHT22;7322;50.872;4.386;2023-04-03T13:20:17;18.90;99.90
14473;DHT22;7322;50.872;4.386;2023-04-03T13:22:53;18.90;99.90
14473;DHT22;7322;50.872;4.386;2023-04-03T13:25:30;18.90;99.90
14473;DHT22;7322;50.872;4.386;2023-04-03T13:28:05;18.90;99.90
14473;DHT22;7322;50.872;4.386;2023-04-03T13:30:37;18.90;99.90
14473;DHT22;7322;50.872;4.386;2023-04-03T13:33:18;18.90;99.90
14473;DHT22;7322;50.872;4.386;2023-04-03T13:35:54;18.90;99.90
14473;DHT22;7322;50.872;4.386;2023-04-03T13:38:25;18.90;99.90
14473;DHT22;7322;50.872;4.386;2023-04-03T13:40:54;18.90;99.90
14473;DHT22;7322;50.872;4.386;2023-04-03T13:43:25;18.90;99.90
14473;DHT22;7322;50.872;4.386;2023-04-03T13:46:23;18.90;99.90
14473;DHT22;7322;50.872;4.386;2023-04-03T13:48:53;18.90;99.90
14473;DHT22;7322;50.872;4.386;2023-04-03T13:51:25;19.00;99.90
14473;DHT22;7322;50.872;4.386;2023-04-03T13:53:55;19.00;99.90
14473;DHT22;7322;50.872;4.386;2023-04-03T13:56:59;19.10;99.90
14473;DHT22;7322;50.872;4.386;2023-04-03T14:02:41;19.10;99.90
14473;DHT22;7322;50.872;4.386;2023-04-03T14:05:22;19.10;99.90
14473;DHT22;7322;50.872;4.386;2023-04-03T14:07:56;19.10;99.90
14473;DHT22;7322;50.872;4.386;2023-04-03T14:10:25;19.10;99.90
14473;DHT22;7322;50.872;4.386;2023-04-03T14:12:52;19.20;99.90
14473;DHT22;7322;50.872;4.386;2023-04-03T14:15:23;19.20;99.90
14473;DHT22;7322;50.872;4.386;2023-04-03T14:17:51;19.20;99.90
14473;DHT22;7322;50.872;4.386;2023-04-03T14:20:20;19.20;99.90
14473;DHT22;7322;50.872;4.386;2023-04-03T14:22:48;19.20;99.90
14473;DHT22;7322;50.872;4.386;2023-04-03T14:25:20;19.30;99.90
14473;DHT22;7322;50.872;4.386;2023-04-03T14:27:50;19.30;99.90
14473;DHT22;7322;50.872;4.386;2023-04-03T14:30:23;19.30;99.90
14473;DHT22;7322;50.872;4.386;2023-04-03T14:32:54;19.30;99.90
14473;DHT22;7322;50.872;4.386;2023-04-03T14:35:24;19.30;99.90
14473;DHT22;7322;50.872;4.386;2023-04-03T14:38:02;19.30;99.90
14473;DHT22;7322;50.872;4.386;2023-04-03T14:40:41;19.30;99.90
14473;DHT22;7322;50.872;4.386;2023-04-03T14:43:10;19.40;99.90
14473;DHT22;7322;50.872;4.386;2023-04-03T14:45:39;19.40;99.90
14473;DHT22;7322;50.872;4.386;2023-04-03T14:48:10;19.40;99.90
14473;DHT22;7322;50.872;4.386;2023-04-03T14:50:43;19.40;99.90
14473;DHT22;7322;50.872;4.386;2023-04-03T14:53:15;19.40;99.90
14473;DHT22;7322;50.872;4.386;2023-04-03T14:55:48;19.40;99.90
14473;DHT22;7322;50.872;4.386;2023-04-03T14:58:19;19.40;99.90
14473;DHT22;7322;50.872;4.386;2023-04-03T15:00:46;19.40;99.90
14473;DHT22;7322;50.872;4.386;2023-04-03T15:03:16;19.40;99.90
14473;DHT22;7322;50.872;4.386;2023-04-03T15:05:45;19.40;99.90
14473;DHT22;7322;50.872;4.386;2023-04-03T15:08:26;19.40;99.90
14473;DHT22;7322;50.872;4.386;2023-04-03T15:11:01;19.40;99.90
14473;DHT22;7322;50.872;4.386;2023-04-03T15:13:37;19.40;99.90
14473;DHT22;7322;50.872;4.386;2023-04-03T15:16:06;19.40;99.90
14473;DHT22;7322;50.872;4.386;2023-04-03T15:18:39;19.40;99.90
14473;DHT22;7322;50.872;4.386;2023-04-03T15:21:07;19.40;99.90
14473;DHT22;7322;50.872;4.386;2023-04-03T15:23:34;19.40;99.90
14473;DHT22;7322;50.872;4.386;2023-04-03T15:26:04;19.40;99.90
14473;DHT22;7322;50.872;4.386;2023-04-03T15:28:34;19.40;99.90
14473;DHT22;7322;50.872;4.386;2023-04-03T15:31:02;19.40;99.90
14473;DHT22;7322;50.872;4.386;2023-04-03T15:33:31;19.40;99.90
14473;DHT22;7322;50.872;4.386;2023-04-03T15:35:59;19.40;99.90
14473;DHT22;7322;50.872;4.386;2023-04-03T15:38:29;19.50;99.90
14473;DHT22;7322;50.872;4.386;2023-04-03T15:40:58;19.50;99.90
14473;DHT22;7322;50.872;4.386;2023-04-03T15:43:27;19.50;99.90
14473;DHT22;7322;50.872;4.386;2023-04-03T15:46:01;19.50;99.90
14473;DHT22;7322;50.872;4.386;2023-04-03T15:48:29;19.50;99.90
14473;DHT22;7322;50.872;4.386;2023-04-03T15:50:59;19.40;99.90
14473;DHT22;7322;50.872;4.386;2023-04-03T15:53:27;19.40;99.90
14473;DHT22;7322;50.872;4.386;2023-04-03T15:56:01;19.40;99.90
14473;DHT22;7322;50.872;4.386;2023-04-03T15:58:29;19.40;99.90
14473;DHT22;7322;50.872;4.386;2023-04-03T16:01:01;19.40;99.90
14473;DHT22;7322;50.872;4.386;2023-04-03T16:03:28;19.40;99.90
14473;DHT22;7322;50.872;4.386;2023-04-03T16:05:55;19.30;99.90
14473;DHT22;7322;50.872;4.386;2023-04-03T16:08:23;19.40;99.90
14473;DHT22;7322;50.872;4.386;2023-04-03T16:10:50;19.40;99.90
14473;DHT22;7322;50.872;4.386;2023-04-03T16:13:17;19.40;99.90
14473;DHT22;7322;50.872;4.386;2023-04-03T16:15:56;19.40;99.90
14473;DHT22;7322;50.872;4.386;2023-04-03T16:18:23;19.40;99.90
14473;DHT22;7322;50.872;4.386;2023-04-03T16:20:50;19.40;99.90
14473;DHT22;7322;50.872;4.386;2023-04-03T16:23:19;19.30;99.90
14473;DHT22;7322;50.872;4.386;2023-04-03T16:25:53;19.30;99.90
14473;DHT22;7322;50.872;4.386;2023-04-03T16:28:27;19.30;99.90
14473;DHT22;7322;50.872;4.386;2023-04-03T16:30:56;19.30;99.90
14473;DHT22;7322;50.872;4.386;2023-04-03T16:33:25;19.30;99.90
14473;DHT22;7322;50.872;4.386;2023-04-03T16:35:53;19.30;99.90
14473;DHT22;7322;50.872;4.386;2023-04-03T16:38:22;19.30;99.90
14473;DHT22;7322;50.872;4.386;2023-04-03T16:40:50;19.30;99.90
14473;DHT22;7322;50.872;4.386;2023-04-03T16:43:25;19.30;99.90
14473;DHT22;7322;50.872;4.386;2023-04-03T16:46:02;19.20;99.90
14473;DHT22;7322;50.872;4.386;2023-04-03T16:48:31;19.30;99.90
14473;DHT22;7322;50.872;4.386;2023-04-03T16:51:08;19.20;99.90
14473;DHT22;7322;50.872;4.386;2023-04-03T16:56:44;19.30;99.90
14473;DHT22;7322;50.872;4.386;2023-04-03T16:59:34;19.20;99.90
14473;DHT22;7322;50.872;4.386;2023-04-03T17:02:29;19.20;99.90
14473;DHT22;7322;50.872;4.386;2023-04-03T17:05:04;19.20;99.90
14473;DHT22;7322;50.872;4.386;2023-04-03T17:07:34;19.20;99.90
14473;DHT22;7322;50.872;4.386;2023-04-03T17:10:08;19.20;99.90
14473;DHT22;7322;50.872;4.386;2023-04-03T17:12:50;19.20;99.90
14473;DHT22;7322;50.872;4.386;2023-04-03T17:15:28;19.20;99.90
14473;DHT22;7322;50.872;4.386;2023-04-03T17:20:47;19.20;99.90
14473;DHT22;7322;50.872;4.386;2023-04-03T17:23:14;19.20;99.90
14473;DHT22;7322;50.872;4.386;2023-04-03T17:26:04;19.20;99.90
14473;DHT22;7322;50.872;4.386;2023-04-03T17:34:32;19.20;99.90
14473;DHT22;7322;50.872;4.386;2023-04-03T17:37:05;19.10;99.90
14473;DHT22;7322;50.872;4.386;2023-04-03T17:39:36;19.10;99.90
14473;DHT22;7322;50.872;4.386;2023-04-03T17:42:04;19.10;99.90
14473;DHT22;7322;50.872;4.386;2023-04-03T17:44:31;19.10;99.90
14473;DHT22;7322;50.872;4.386;2023-04-03T17:47:01;19.10;99.90
14473;DHT22;7322;50.872;4.386;2023-04-03T17:49:34;19.10;99.90
14473;DHT22;7322;50.872;4.386;2023-04-03T17:52:16;19.10;99.90
14473;DHT22;7322;50.872;4.386;2023-04-03T17:54:44;19.10;99.90
14473;DHT22;7322;50.872;4.386;2023-04-03T17:57:25;19.10;99.90
14473;DHT22;7322;50.872;4.386;2023-04-03T18:00:05;19.10;99.90
14473;DHT22;7322;50.872;4.386;2023-04-03T18:02:34;19.10;99.90
14473;DHT22;7322;50.872;4.386;2023-04-03T18:05:02;19.10;99.90